createdAt,value
2022-10-22T00:00:20.000Z,99.99
2022-10-22T00:00:20.000Z,99.99
2022-10-22T00:01:20.000Z,99.99
2022-10-22T00:01:20.000Z,99.99
2022-10-22T00:02:20.000Z,99.99
2022-10-22T00:02:20.000Z,99.99
2022-10-22T00:03:20.000Z,99.99
2022-10-22T00:03:20.000Z,99.99
2022-10-22T00:04:20.000Z,99.99
2022-10-22T00:05:20.000Z,99.99
2022-10-22T00:06:20.000Z,99.99
2022-10-22T00:07:20.000Z,99.99
2022-10-22T00:08:20.000Z,99.99
2022-10-22T00:09:20.000Z,99.99
2022-10-22T00:10:20.000Z,99.99
2022-10-22T00:11:20.000Z,99.99
2022-10-22T00:12:20.000Z,99.99
2022-10-22T00:13:20.000Z,99.99
2022-10-22T00:14:20.000Z,99.99
2022-10-22T00:15:20.000Z,99.99
2022-10-22T00:16:20.000Z,99.99
2022-10-22T00:17:20.000Z,99.99
2022-10-22T00:18:20.000Z,99.99
2022-10-22T00:19:20.000Z,99.99
2022-10-22T00:20:20.000Z,99.99
2022-10-22T00:21:20.000Z,99.99
2022-10-22T00:22:20.000Z,99.99
2022-10-22T00:23:20.000Z,99.99
2022-10-22T00:24:20.000Z,99.99
2022-10-22T00:25:20.000Z,99.99
2022-10-22T00:26:20.000Z,99.99
2022-10-22T00:27:20.000Z,99.99
2022-10-22T00:28:20.000Z,99.99
2022-10-22T00:29:20.000Z,99.99
2022-10-22T00:30:20.000Z,99.99
2022-10-22T00:31:20.000Z,99.99
2022-10-22T00:32:20.000Z,99.99
2022-10-22T00:33:20.000Z,99.99
2022-10-22T00:34:20.000Z,99.99
2022-10-22T00:35:20.000Z,99.99
2022-10-22T00:36:20.000Z,99.99
2022-10-22T00:37:20.000Z,99.99
2022-10-22T00:38:20.000Z,99.99
2022-10-22T00:39:20.000Z,99.99
2022-10-22T00:40:20.000Z,99.99
2022-10-22T00:41:20.000Z,99.99
2022-10-22T00:42:20.000Z,99.99
2022-10-22T00:43:20.000Z,99.99
2022-10-22T00:44:20.000Z,99.99
2022-10-22T00:45:20.000Z,99.99
2022-10-22T00:46:20.000Z,99.99
2022-10-22T00:47:20.000Z,99.99
2022-10-22T00:48:20.000Z,99.99
2022-10-22T00:49:20.000Z,99.99
2022-10-22T00:50:20.000Z,99.99
2022-10-22T00:51:20.000Z,99.99
2022-10-22T00:52:20.000Z,99.99
2022-10-22T00:53:20.000Z,99.99
2022-10-22T00:54:20.000Z,99.99
2022-10-22T00:55:20.000Z,99.99
2022-10-22T00:56:20.000Z,99.99
2022-10-22T00:57:20.000Z,99.99
2022-10-22T00:58:20.000Z,99.99
2022-10-22T00:59:20.000Z,99.99
2022-10-22T01:00:20.000Z,99.99
2022-10-22T01:01:20.000Z,99.99
2022-10-22T01:02:20.000Z,99.99
2022-10-22T01:03:20.000Z,99.99
2022-10-22T01:04:20.000Z,99.99
2022-10-22T01:05:20.000Z,99.99
2022-10-22T01:06:20.000Z,99.99
2022-10-22T01:07:20.000Z,99.99
2022-10-22T01:08:20.000Z,99.99
2022-10-22T01:09:20.000Z,99.99
2022-10-22T01:10:20.000Z,99.99
2022-10-22T01:11:20.000Z,99.99
2022-10-22T01:12:20.000Z,99.99
2022-10-22T01:13:20.000Z,99.99
2022-10-22T01:14:20.000Z,99.99
2022-10-22T01:15:20.000Z,99.99
2022-10-22T01:16:20.000Z,99.99
2022-10-22T01:17:20.000Z,99.99
2022-10-22T01:18:20.000Z,99.99
2022-10-22T01:19:20.000Z,99.99
2022-10-22T01:20:20.000Z,99.99
2022-10-22T01:21:20.000Z,99.99
2022-10-22T01:22:20.000Z,99.99
2022-10-22T01:23:20.000Z,99.99
2022-10-22T01:24:20.000Z,99.99
2022-10-22T01:25:20.000Z,99.99
2022-10-22T01:26:20.000Z,99.99
2022-10-22T01:27:20.000Z,99.99
2022-10-22T01:28:20.000Z,99.99
2022-10-22T01:29:20.000Z,99.99
2022-10-22T01:30:20.000Z,99.99
2022-10-22T01:31:20.000Z,99.99
2022-10-22T01:32:20.000Z,99.99
2022-10-22T01:33:20.000Z,99.99
2022-10-22T01:34:20.000Z,99.99
2022-10-22T01:35:20.000Z,99.99
2022-10-22T01:36:20.000Z,99.99
2022-10-22T01:37:20.000Z,99.99
2022-10-22T01:38:20.000Z,99.99
2022-10-22T01:39:20.000Z,99.99
2022-10-22T01:40:20.000Z,99.99
2022-10-22T01:41:20.000Z,99.99
2022-10-22T01:42:20.000Z,99.99
2022-10-22T01:43:20.000Z,99.99
2022-10-22T01:44:20.000Z,99.99
2022-10-22T01:45:20.000Z,99.99
2022-10-22T01:46:19.000Z,99.99
2022-10-22T01:47:19.000Z,99.99
2022-10-22T01:48:19.000Z,99.99
2022-10-22T01:49:19.000Z,99.99
2022-10-22T01:50:19.000Z,99.99
2022-10-22T01:51:19.000Z,99.99
2022-10-22T01:52:19.000Z,99.99
2022-10-22T01:53:19.000Z,99.99
2022-10-22T01:54:19.000Z,99.99
2022-10-22T01:55:19.000Z,99.99
2022-10-22T01:56:19.000Z,99.99
2022-10-22T01:57:19.000Z,99.99
2022-10-22T01:58:19.000Z,99.99
2022-10-22T01:59:19.000Z,99.99
2022-10-22T02:00:19.000Z,99.99
2022-10-22T02:01:19.000Z,99.99
2022-10-22T02:02:19.000Z,99.99
2022-10-22T02:03:19.000Z,99.99
2022-10-22T02:04:19.000Z,99.99
2022-10-22T02:05:19.000Z,99.99
2022-10-22T02:06:19.000Z,99.99
2022-10-22T02:07:19.000Z,99.99
2022-10-22T02:08:19.000Z,99.99
2022-10-22T02:09:19.000Z,99.99
2022-10-22T02:10:19.000Z,99.99
2022-10-22T02:11:19.000Z,99.99
2022-10-22T02:12:19.000Z,99.99
2022-10-22T02:13:19.000Z,99.99
2022-10-22T02:14:19.000Z,99.99
2022-10-22T02:15:19.000Z,99.99
2022-10-22T02:16:19.000Z,99.99
2022-10-22T02:17:19.000Z,99.99
2022-10-22T02:18:19.000Z,99.99
2022-10-22T02:19:19.000Z,99.99
2022-10-22T02:20:19.000Z,99.99
2022-10-22T02:21:19.000Z,99.99
2022-10-22T02:22:19.000Z,99.99
2022-10-22T02:23:19.000Z,99.99
2022-10-22T02:24:19.000Z,99.99
2022-10-22T02:25:19.000Z,99.99
2022-10-22T02:26:19.000Z,99.99
2022-10-22T02:27:19.000Z,99.99
2022-10-22T02:28:19.000Z,99.99
2022-10-22T02:29:19.000Z,99.99
2022-10-22T02:30:19.000Z,99.99
2022-10-22T02:31:19.000Z,99.99
2022-10-22T02:32:19.000Z,99.99
2022-10-22T02:33:19.000Z,99.99
2022-10-22T02:34:19.000Z,99.99
2022-10-22T02:35:19.000Z,99.99
2022-10-22T02:36:19.000Z,99.99
2022-10-22T02:37:19.000Z,99.99
2022-10-22T02:38:19.000Z,99.99
2022-10-22T02:39:19.000Z,99.99
2022-10-22T02:40:19.000Z,99.99
2022-10-22T02:41:19.000Z,99.99
2022-10-22T02:42:19.000Z,99.99
2022-10-22T02:43:19.000Z,99.99
2022-10-22T02:44:19.000Z,99.99
2022-10-22T02:45:19.000Z,99.99
2022-10-22T02:46:19.000Z,99.99
2022-10-22T02:47:19.000Z,99.99
2022-10-22T02:48:19.000Z,99.99
2022-10-22T02:49:19.000Z,99.99
2022-10-22T02:50:19.000Z,99.99
2022-10-22T02:51:19.000Z,99.99
2022-10-22T02:52:19.000Z,99.99
2022-10-22T02:53:19.000Z,99.99
2022-10-22T02:54:19.000Z,99.99
2022-10-22T02:55:19.000Z,99.99
2022-10-22T02:56:19.000Z,99.99
2022-10-22T02:57:19.000Z,99.99
2022-10-22T02:58:19.000Z,99.99
2022-10-22T02:59:19.000Z,99.99
2022-10-22T03:00:19.000Z,99.99
2022-10-22T03:01:19.000Z,99.99
2022-10-22T03:02:19.000Z,99.99
2022-10-22T03:03:19.000Z,99.99
2022-10-22T03:04:19.000Z,99.99
2022-10-22T03:05:19.000Z,99.99
2022-10-22T03:06:19.000Z,99.99
2022-10-22T03:07:19.000Z,99.99
2022-10-22T03:08:19.000Z,99.99
2022-10-22T03:09:19.000Z,99.99
2022-10-22T03:10:19.000Z,99.99
2022-10-22T03:11:19.000Z,99.99
2022-10-22T03:12:19.000Z,99.99
2022-10-22T03:13:19.000Z,99.99
2022-10-22T03:14:19.000Z,99.99
2022-10-22T03:15:19.000Z,99.99
2022-10-22T03:16:19.000Z,99.99
2022-10-22T03:17:19.000Z,99.99
2022-10-22T03:18:19.000Z,99.99
2022-10-22T03:19:19.000Z,99.99
2022-10-22T03:20:19.000Z,99.99
2022-10-22T03:21:19.000Z,99.99
2022-10-22T03:22:19.000Z,99.99
2022-10-22T03:23:19.000Z,99.99
2022-10-22T03:24:19.000Z,99.99
2022-10-22T03:25:19.000Z,99.99
2022-10-22T03:26:19.000Z,99.99
2022-10-22T03:27:19.000Z,99.99
2022-10-22T03:28:19.000Z,99.99
2022-10-22T03:29:19.000Z,99.99
2022-10-22T03:30:19.000Z,99.99
2022-10-22T03:31:19.000Z,99.99
2022-10-22T03:32:19.000Z,99.99
2022-10-22T03:33:19.000Z,99.99
2022-10-22T03:34:19.000Z,99.99
2022-10-22T03:35:19.000Z,99.99
2022-10-22T03:36:19.000Z,99.99
2022-10-22T03:37:19.000Z,99.99
2022-10-22T03:38:19.000Z,99.99
2022-10-22T03:39:19.000Z,99.99
2022-10-22T03:40:19.000Z,99.99
2022-10-22T03:41:19.000Z,99.99
2022-10-22T03:42:19.000Z,99.99
2022-10-22T03:43:19.000Z,99.99
2022-10-22T03:44:19.000Z,99.99
2022-10-22T03:45:19.000Z,99.99
2022-10-22T03:46:19.000Z,99.99
2022-10-22T03:47:19.000Z,99.99
2022-10-22T03:48:19.000Z,99.99
2022-10-22T03:49:19.000Z,99.99
2022-10-22T03:50:19.000Z,99.99
2022-10-22T03:51:19.000Z,99.99
2022-10-22T03:52:19.000Z,99.99
2022-10-22T03:53:19.000Z,99.99
2022-10-22T03:54:19.000Z,99.99
2022-10-22T03:55:19.000Z,99.99
2022-10-22T03:56:19.000Z,99.99
2022-10-22T03:57:19.000Z,99.99
2022-10-22T03:58:19.000Z,99.99
2022-10-22T03:59:19.000Z,99.99
2022-10-22T04:00:19.000Z,99.99
2022-10-22T04:01:19.000Z,99.99
2022-10-22T04:02:19.000Z,99.99
2022-10-22T04:03:19.000Z,99.99
2022-10-22T04:04:19.000Z,99.99
2022-10-22T04:05:19.000Z,99.99
2022-10-22T04:06:19.000Z,99.99
2022-10-22T04:07:19.000Z,99.99
2022-10-22T04:08:19.000Z,99.99
2022-10-22T04:09:19.000Z,99.99
2022-10-22T04:10:19.000Z,99.99
2022-10-22T04:11:19.000Z,99.99
2022-10-22T04:12:19.000Z,99.99
2022-10-22T04:13:19.000Z,99.99
2022-10-22T04:14:19.000Z,99.99
2022-10-22T04:15:19.000Z,99.99
2022-10-22T04:16:19.000Z,99.99
2022-10-22T04:17:19.000Z,99.99
2022-10-22T04:18:19.000Z,99.99
2022-10-22T04:19:19.000Z,99.99
2022-10-22T04:20:19.000Z,99.99
2022-10-22T04:21:19.000Z,99.99
2022-10-22T04:22:19.000Z,99.99
2022-10-22T04:23:19.000Z,99.99
2022-10-22T04:24:19.000Z,99.99
2022-10-22T04:25:19.000Z,99.99
2022-10-22T04:26:19.000Z,99.99
2022-10-22T04:27:19.000Z,99.99
2022-10-22T04:28:19.000Z,99.99
2022-10-22T04:29:19.000Z,99.99
2022-10-22T04:30:19.000Z,99.99
2022-10-22T04:31:19.000Z,99.99
2022-10-22T04:32:19.000Z,99.99
2022-10-22T04:33:19.000Z,99.99
2022-10-22T04:34:19.000Z,99.99
2022-10-22T04:35:19.000Z,99.99
2022-10-22T04:36:18.000Z,99.99
2022-10-22T04:37:18.000Z,99.99
2022-10-22T04:38:18.000Z,99.99
2022-10-22T04:39:18.000Z,99.99
2022-10-22T04:40:18.000Z,99.99
2022-10-22T04:41:18.000Z,99.99
2022-10-22T04:42:18.000Z,99.99
2022-10-22T04:43:18.000Z,99.99
2022-10-22T04:44:18.000Z,99.99
2022-10-22T04:45:18.000Z,99.99
2022-10-22T04:46:18.000Z,99.99
2022-10-22T04:47:18.000Z,99.99
2022-10-22T04:48:18.000Z,99.99
2022-10-22T04:49:18.000Z,99.99
2022-10-22T04:49:18.000Z,99.99
2022-10-22T04:50:18.000Z,99.99
2022-10-22T04:50:18.000Z,99.99
2022-10-22T04:51:18.000Z,99.99
2022-10-22T04:51:18.000Z,99.99
2022-10-22T04:52:18.000Z,99.99
2022-10-22T04:52:18.000Z,99.99
2022-10-22T04:53:18.000Z,99.99
2022-10-22T04:53:18.000Z,99.99
2022-10-22T04:54:18.000Z,99.99
2022-10-22T04:55:18.000Z,99.99
2022-10-22T04:56:18.000Z,99.99
2022-10-22T04:57:18.000Z,99.99
2022-10-22T04:58:18.000Z,99.99
2022-10-22T04:59:18.000Z,99.99
2022-10-22T05:00:18.000Z,99.99
2022-10-22T05:01:18.000Z,99.99
2022-10-22T05:02:18.000Z,99.99
2022-10-22T05:03:18.000Z,99.99
2022-10-22T05:04:18.000Z,99.99
2022-10-22T05:05:18.000Z,99.99
2022-10-22T05:06:18.000Z,99.99
2022-10-22T05:07:18.000Z,99.99
2022-10-22T05:08:18.000Z,99.99
2022-10-22T05:09:18.000Z,99.99
2022-10-22T05:10:18.000Z,99.99
2022-10-22T05:11:18.000Z,99.99
2022-10-22T05:12:18.000Z,99.99
2022-10-22T05:13:18.000Z,99.99
2022-10-22T05:14:18.000Z,99.99
2022-10-22T05:15:18.000Z,99.99
2022-10-22T05:16:18.000Z,99.99
2022-10-22T05:17:18.000Z,99.99
2022-10-22T05:18:18.000Z,99.99
2022-10-22T05:19:18.000Z,99.99
2022-10-22T05:20:18.000Z,99.99
2022-10-22T05:21:18.000Z,99.99
2022-10-22T05:22:18.000Z,99.99
2022-10-22T05:23:18.000Z,99.99
2022-10-22T05:24:18.000Z,99.99
2022-10-22T05:25:18.000Z,99.99
2022-10-22T05:26:18.000Z,99.99
2022-10-22T05:27:18.000Z,99.99
2022-10-22T05:28:18.000Z,99.99
2022-10-22T05:29:18.000Z,99.99
2022-10-22T05:30:18.000Z,99.99
2022-10-22T05:31:18.000Z,99.99
2022-10-22T05:32:18.000Z,99.99
2022-10-22T05:33:18.000Z,99.99
2022-10-22T05:34:18.000Z,99.99
2022-10-22T05:35:18.000Z,99.99
2022-10-22T05:36:18.000Z,99.99
2022-10-22T05:37:18.000Z,99.99
2022-10-22T05:38:18.000Z,99.99
2022-10-22T05:39:18.000Z,99.99
2022-10-22T05:40:18.000Z,99.99
2022-10-22T05:41:18.000Z,99.99
2022-10-22T05:42:18.000Z,99.99
2022-10-22T05:43:18.000Z,99.99
2022-10-22T05:44:18.000Z,99.99
2022-10-22T05:45:18.000Z,99.99
2022-10-22T05:46:18.000Z,99.99
2022-10-22T05:47:18.000Z,99.99
2022-10-22T05:48:18.000Z,99.99
2022-10-22T05:49:18.000Z,99.99
2022-10-22T05:50:18.000Z,99.99
2022-10-22T05:51:18.000Z,99.99
2022-10-22T05:52:18.000Z,99.99
2022-10-22T05:53:18.000Z,99.99
2022-10-22T05:54:18.000Z,99.99
2022-10-22T05:55:18.000Z,99.99
2022-10-22T05:56:18.000Z,99.99
2022-10-22T05:57:18.000Z,99.99
2022-10-22T05:58:18.000Z,99.99
2022-10-22T05:59:18.000Z,99.99
2022-10-22T06:00:18.000Z,99.99
2022-10-22T06:01:18.000Z,99.99
2022-10-22T06:02:18.000Z,99.99
2022-10-22T06:03:18.000Z,99.99
2022-10-22T06:04:18.000Z,99.99
2022-10-22T06:05:18.000Z,99.99
2022-10-22T06:06:18.000Z,99.99
2022-10-22T06:07:18.000Z,99.99
2022-10-22T06:08:18.000Z,99.99
2022-10-22T06:09:18.000Z,99.99
2022-10-22T06:10:18.000Z,99.99
2022-10-22T06:11:18.000Z,99.99
2022-10-22T06:12:18.000Z,99.99
2022-10-22T06:13:18.000Z,99.99
2022-10-22T06:14:18.000Z,99.99
2022-10-22T06:15:18.000Z,99.99
2022-10-22T06:16:18.000Z,99.99
2022-10-22T06:17:18.000Z,99.99
2022-10-22T06:18:18.000Z,99.99
2022-10-22T06:19:18.000Z,99.99
2022-10-22T06:20:18.000Z,99.99
2022-10-22T06:21:18.000Z,99.99
2022-10-22T06:22:18.000Z,99.99
2022-10-22T06:23:18.000Z,99.99
2022-10-22T06:24:18.000Z,99.99
2022-10-22T06:25:18.000Z,99.99
2022-10-22T06:26:18.000Z,99.99
2022-10-22T06:27:18.000Z,99.99
2022-10-22T06:28:18.000Z,99.99
2022-10-22T06:29:18.000Z,99.99
2022-10-22T06:30:18.000Z,99.99
2022-10-22T06:31:18.000Z,99.99
2022-10-22T06:32:18.000Z,99.99
2022-10-22T06:33:18.000Z,99.99
2022-10-22T06:34:18.000Z,99.99
2022-10-22T06:35:18.000Z,99.99
2022-10-22T06:36:18.000Z,99.99
2022-10-22T06:37:18.000Z,99.99
2022-10-22T06:38:18.000Z,99.99
2022-10-22T06:39:18.000Z,99.99
2022-10-22T06:40:18.000Z,99.99
2022-10-22T06:41:18.000Z,99.99
2022-10-22T06:42:18.000Z,99.99
2022-10-22T06:43:18.000Z,99.99
2022-10-22T06:44:18.000Z,99.99
2022-10-22T06:45:18.000Z,99.99
2022-10-22T06:46:18.000Z,99.99
2022-10-22T06:47:18.000Z,99.99
2022-10-22T06:48:18.000Z,99.99
2022-10-22T06:49:18.000Z,99.99
2022-10-22T06:50:18.000Z,99.99
2022-10-22T06:51:18.000Z,99.99
2022-10-22T06:52:18.000Z,99.99
2022-10-22T06:53:18.000Z,99.99
2022-10-22T06:54:18.000Z,99.99
2022-10-22T06:55:18.000Z,99.99
2022-10-22T06:56:18.000Z,99.99
2022-10-22T06:57:18.000Z,99.99
2022-10-22T06:58:18.000Z,99.99
2022-10-22T07:05:36.000Z,99.99
2022-10-22T07:05:36.000Z,99.99
2022-10-22T07:06:36.000Z,99.99
2022-10-22T07:07:36.000Z,99.99
2022-10-22T07:08:36.000Z,99.99
2022-10-22T07:09:36.000Z,99.99
2022-10-22T07:10:36.000Z,99.99
2022-10-22T07:11:36.000Z,99.99
2022-10-22T07:12:36.000Z,99.99
2022-10-22T07:13:36.000Z,99.99
2022-10-22T07:14:36.000Z,99.99
2022-10-22T07:15:36.000Z,99.99
2022-10-22T07:16:36.000Z,99.99
2022-10-22T07:17:36.000Z,99.99
2022-10-22T07:18:36.000Z,99.99
2022-10-22T07:19:36.000Z,99.99
2022-10-22T07:20:36.000Z,99.99
2022-10-22T07:21:36.000Z,99.99
2022-10-22T07:22:36.000Z,99.99
2022-10-22T07:23:36.000Z,99.99
2022-10-22T07:24:36.000Z,99.99
2022-10-22T07:25:36.000Z,99.99
2022-10-22T07:26:36.000Z,99.99
2022-10-22T07:27:36.000Z,99.99
2022-10-22T07:28:36.000Z,99.99
2022-10-22T07:29:36.000Z,99.99
2022-10-22T07:30:36.000Z,99.99
2022-10-22T07:31:36.000Z,99.99
2022-10-22T07:32:36.000Z,99.99
2022-10-22T07:33:36.000Z,99.99
2022-10-22T07:34:36.000Z,99.99
2022-10-22T07:35:36.000Z,99.99
2022-10-22T07:36:36.000Z,99.99
2022-10-22T07:37:36.000Z,99.99
2022-10-22T07:38:36.000Z,99.99
2022-10-22T07:39:36.000Z,99.99
2022-10-22T07:40:36.000Z,99.99
2022-10-22T07:41:36.000Z,99.99
2022-10-22T07:42:36.000Z,99.99
2022-10-22T07:43:36.000Z,99.99
2022-10-22T07:44:36.000Z,99.99
2022-10-22T07:45:36.000Z,99.99
2022-10-22T07:46:36.000Z,99.99
2022-10-22T07:47:36.000Z,99.99
2022-10-22T07:48:36.000Z,99.99
2022-10-22T07:49:36.000Z,99.99
2022-10-22T07:50:36.000Z,99.99
2022-10-22T07:51:36.000Z,99.99
2022-10-22T07:52:36.000Z,99.99
2022-10-22T07:53:36.000Z,99.99
2022-10-22T07:54:36.000Z,99.99
2022-10-22T07:55:36.000Z,99.99
2022-10-22T07:56:36.000Z,99.99
2022-10-22T07:57:36.000Z,99.99
2022-10-22T07:58:36.000Z,99.99
2022-10-22T07:59:36.000Z,99.99
2022-10-22T08:00:36.000Z,99.99
2022-10-22T08:01:36.000Z,99.99
2022-10-22T08:02:36.000Z,99.99
2022-10-22T08:03:36.000Z,99.99
2022-10-22T08:04:36.000Z,99.99
2022-10-22T08:05:36.000Z,99.99
2022-10-22T08:06:36.000Z,99.99
2022-10-22T08:07:36.000Z,99.99
2022-10-22T08:08:36.000Z,99.99
2022-10-22T08:09:36.000Z,99.99
2022-10-22T08:10:36.000Z,99.99
2022-10-22T08:11:36.000Z,99.99
2022-10-22T08:12:36.000Z,99.99
2022-10-22T08:13:36.000Z,99.99
2022-10-22T08:14:36.000Z,99.99
2022-10-22T08:15:36.000Z,99.99
2022-10-22T08:16:36.000Z,99.99
2022-10-22T08:17:36.000Z,99.99
2022-10-22T08:18:36.000Z,99.99
2022-10-22T08:19:36.000Z,99.99
2022-10-22T08:20:36.000Z,99.99
2022-10-22T08:21:36.000Z,99.99
2022-10-22T08:22:36.000Z,99.99
2022-10-22T08:23:36.000Z,99.99
2022-10-22T08:24:36.000Z,99.99
2022-10-22T08:25:36.000Z,99.99
2022-10-22T08:26:36.000Z,99.99
2022-10-22T08:27:36.000Z,99.99
2022-10-22T08:28:36.000Z,99.99
2022-10-22T08:29:36.000Z,99.99
2022-10-22T08:30:36.000Z,99.99
2022-10-22T08:31:36.000Z,99.99
2022-10-22T08:32:36.000Z,99.99
2022-10-22T08:33:36.000Z,99.99
2022-10-22T08:34:36.000Z,99.99
2022-10-22T08:35:36.000Z,99.99
2022-10-22T08:36:36.000Z,99.99
2022-10-22T08:37:36.000Z,99.99
2022-10-22T08:38:36.000Z,99.99
2022-10-22T08:39:36.000Z,99.99
2022-10-22T08:40:36.000Z,99.99
2022-10-22T08:41:36.000Z,99.99
2022-10-22T08:42:36.000Z,99.99
2022-10-22T08:43:36.000Z,99.99
2022-10-22T08:44:36.000Z,99.99
2022-10-22T08:45:36.000Z,99.99
2022-10-22T08:46:36.000Z,99.99
2022-10-22T08:47:36.000Z,99.99
2022-10-22T08:48:36.000Z,99.99
2022-10-22T08:49:36.000Z,99.99
2022-10-22T08:50:36.000Z,99.99
2022-10-22T08:51:36.000Z,99.99
2022-10-22T08:52:36.000Z,99.99
2022-10-22T08:53:36.000Z,99.99
2022-10-22T08:54:36.000Z,99.99
2022-10-22T08:55:36.000Z,99.99
2022-10-22T08:56:36.000Z,99.99
2022-10-22T08:57:36.000Z,99.99
2022-10-22T08:58:36.000Z,99.99
2022-10-22T08:59:36.000Z,99.99
2022-10-22T09:00:36.000Z,99.99
2022-10-22T09:01:36.000Z,99.99
2022-10-22T09:02:36.000Z,99.99
2022-10-22T09:03:36.000Z,99.99
2022-10-22T09:04:36.000Z,99.99
2022-10-22T09:05:36.000Z,99.99
2022-10-22T09:06:36.000Z,99.99
2022-10-22T09:07:36.000Z,99.99
2022-10-22T09:08:36.000Z,99.99
2022-10-22T09:09:36.000Z,99.99
2022-10-22T09:10:36.000Z,99.80
2022-10-22T09:11:36.000Z,99.69
2022-10-22T09:12:36.000Z,99.80
2022-10-22T09:13:36.000Z,99.60
2022-10-22T09:14:36.000Z,99.60
2022-10-22T09:15:36.000Z,99.44
2022-10-22T09:16:36.000Z,99.44
2022-10-22T09:17:36.000Z,99.55
2022-10-22T09:18:36.000Z,99.65
2022-10-22T09:19:36.000Z,99.75
2022-10-22T09:20:36.000Z,99.65
2022-10-22T09:21:36.000Z,99.35
2022-10-22T09:22:36.000Z,99.04
2022-10-22T09:23:36.000Z,98.74
2022-10-22T09:24:36.000Z,98.39
2022-10-22T09:25:36.000Z,98.28
2022-10-22T09:26:36.000Z,98.08
2022-10-22T09:27:36.000Z,98.28
2022-10-22T09:28:36.000Z,98.28
2022-10-22T09:29:36.000Z,97.27
2022-10-22T09:30:36.000Z,97.27
2022-10-22T09:31:36.000Z,97.17
2022-10-22T09:32:36.000Z,97.23
2022-10-22T09:33:36.000Z,97.23
2022-10-22T09:34:36.000Z,97.33
2022-10-22T09:35:36.000Z,97.63
2022-10-22T09:36:36.000Z,97.23
2022-10-22T09:37:36.000Z,96.92
2022-10-22T09:38:36.000Z,95.50
2022-10-22T09:39:36.000Z,95.30
2022-10-22T09:40:36.000Z,95.50
2022-10-22T09:41:36.000Z,96.17
2022-10-22T09:42:36.000Z,95.76
2022-10-22T09:43:35.000Z,94.75
2022-10-22T09:44:35.000Z,95.06
2022-10-22T09:45:35.000Z,95.15
2022-10-22T09:46:35.000Z,93.63
2022-10-22T09:47:35.000Z,94.24
2022-10-22T09:48:35.000Z,93.49
2022-10-22T09:49:35.000Z,93.08
2022-10-22T09:50:35.000Z,94.10
2022-10-22T09:51:35.000Z,95.11
2022-10-22T09:52:35.000Z,94.00
2022-10-22T09:53:35.000Z,94.15
2022-10-22T09:54:35.000Z,93.04
2022-10-22T09:55:35.000Z,91.02
2022-10-22T09:56:35.000Z,90.21
2022-10-22T09:57:35.000Z,90.72
2022-10-22T09:58:35.000Z,92.03
2022-10-22T09:59:35.000Z,92.33
2022-10-22T10:00:35.000Z,92.24
2022-10-22T10:01:35.000Z,91.93
2022-10-22T10:02:35.000Z,91.22
2022-10-22T10:03:35.000Z,90.82
2022-10-22T10:04:35.000Z,91.42
2022-10-22T10:05:35.000Z,90.31
2022-10-22T10:06:35.000Z,90.11
2022-10-22T10:07:35.000Z,89.20
2022-10-22T10:08:35.000Z,89.87
2022-10-22T10:09:35.000Z,90.17
2022-10-22T10:10:35.000Z,89.46
2022-10-22T10:11:35.000Z,89.66
2022-10-22T10:12:35.000Z,88.65
2022-10-22T10:13:35.000Z,89.16
2022-10-22T10:14:35.000Z,89.87
2022-10-22T10:15:35.000Z,89.97
2022-10-22T10:16:35.000Z,90.07
2022-10-22T10:17:35.000Z,90.33
2022-10-22T10:18:35.000Z,89.72
2022-10-22T10:19:35.000Z,88.51
2022-10-22T10:20:35.000Z,88.21
2022-10-22T10:21:35.000Z,88.31
2022-10-22T10:22:35.000Z,88.41
2022-10-22T10:23:35.000Z,88.21
2022-10-22T10:24:35.000Z,86.99
2022-10-22T10:25:35.000Z,86.69
2022-10-22T10:26:35.000Z,87.30
2022-10-22T10:27:35.000Z,87.10
2022-10-22T10:28:35.000Z,86.19
2022-10-22T10:29:35.000Z,87.30
2022-10-22T10:30:35.000Z,87.10
2022-10-22T10:31:35.000Z,87.90
2022-10-22T10:32:35.000Z,86.95
2022-10-22T10:33:35.000Z,86.35
2022-10-22T10:34:35.000Z,86.85
2022-10-22T10:35:35.000Z,86.25
2022-10-22T10:36:35.000Z,86.95
2022-10-22T10:37:35.000Z,87.46
2022-10-22T10:38:35.000Z,86.71
2022-10-22T10:39:35.000Z,86.00
2022-10-22T10:40:35.000Z,85.60
2022-10-22T10:41:35.000Z,85.19
2022-10-22T10:42:35.000Z,84.89
2022-10-22T10:43:35.000Z,85.30
2022-10-22T10:44:35.000Z,85.56
2022-10-22T10:45:35.000Z,84.35
2022-10-22T10:46:35.000Z,83.54
2022-10-22T10:47:34.000Z,84.15
2022-10-22T10:48:34.000Z,83.95
2022-10-22T10:49:34.000Z,82.73
2022-10-22T10:50:34.000Z,82.64
2022-10-22T10:51:34.000Z,82.53
2022-10-22T10:52:34.000Z,83.20
2022-10-22T10:53:34.000Z,81.48
2022-10-22T10:54:34.000Z,80.58
2022-10-22T10:55:34.000Z,81.68
2022-10-22T10:56:34.000Z,81.89
2022-10-22T10:57:34.000Z,82.90
2022-10-22T10:58:34.000Z,81.99
2022-10-22T11:05:51.000Z,80.04
2022-10-22T11:05:51.000Z,80.33
2022-10-22T11:06:51.000Z,81.24
2022-10-22T11:07:51.000Z,80.54
2022-10-22T11:08:51.000Z,80.00
2022-10-22T11:09:51.000Z,80.60
2022-10-22T11:10:51.000Z,79.39
2022-10-22T11:11:51.000Z,79.09
2022-10-22T11:12:51.000Z,79.69
2022-10-22T11:13:51.000Z,78.55
2022-10-22T11:14:51.000Z,78.05
2022-10-22T11:15:51.000Z,77.84
2022-10-22T11:16:51.000Z,76.74
2022-10-22T11:17:51.000Z,77.24
2022-10-22T11:18:51.000Z,76.27
2022-10-22T11:19:51.000Z,76.97
2022-10-22T11:20:51.000Z,76.94
2022-10-22T11:21:51.000Z,77.04
2022-10-22T11:22:51.000Z,77.55
2022-10-22T11:23:51.000Z,77.55
2022-10-22T11:24:51.000Z,75.53
2022-10-22T11:25:51.000Z,74.73
2022-10-22T11:26:51.000Z,76.34
2022-10-22T11:27:51.000Z,76.74
2022-10-22T11:28:51.000Z,77.20
2022-10-22T11:29:51.000Z,75.83
2022-10-22T11:30:51.000Z,76.34
2022-10-22T11:31:51.000Z,78.25
2022-10-22T11:32:51.000Z,77.20
2022-10-22T11:33:51.000Z,76.90
2022-10-22T11:34:51.000Z,75.59
2022-10-22T11:35:51.000Z,75.63
2022-10-22T11:36:50.000Z,76.64
2022-10-22T11:37:50.000Z,76.14
2022-10-22T11:38:50.000Z,76.54
2022-10-22T11:39:50.000Z,75.63
2022-10-22T11:40:50.000Z,77.04
2022-10-22T11:41:50.000Z,75.83
2022-10-22T11:42:50.000Z,77.04
2022-10-22T11:43:50.000Z,76.30
2022-10-22T11:44:50.000Z,75.99
2022-10-22T11:45:50.000Z,76.20
2022-10-22T11:46:50.000Z,76.50
2022-10-22T11:47:50.000Z,76.70
2022-10-22T11:48:50.000Z,75.79
2022-10-22T11:49:50.000Z,75.53
2022-10-22T11:50:50.000Z,75.33
2022-10-22T11:51:50.000Z,74.93
2022-10-22T11:52:50.000Z,75.13
2022-10-22T11:53:50.000Z,76.34
2022-10-22T11:54:50.000Z,76.74
2022-10-22T11:55:50.000Z,77.14
2022-10-22T11:56:50.000Z,76.14
2022-10-22T11:57:50.000Z,76.34
2022-10-22T11:58:50.000Z,76.23
2022-10-22T11:59:50.000Z,76.23
2022-10-22T12:00:50.000Z,77.14
2022-10-22T12:01:50.000Z,76.03
2022-10-22T12:02:50.000Z,75.73
2022-10-22T12:03:50.000Z,76.03
2022-10-22T12:04:50.000Z,75.73
2022-10-22T12:05:50.000Z,75.43
2022-10-22T12:06:50.000Z,75.73
2022-10-22T12:07:50.000Z,75.16
2022-10-22T12:08:50.000Z,75.93
2022-10-22T12:09:50.000Z,75.87
2022-10-22T12:10:50.000Z,75.63
2022-10-22T12:11:50.000Z,75.83
2022-10-22T12:12:50.000Z,75.73
2022-10-22T12:13:50.000Z,76.23
2022-10-22T12:14:50.000Z,76.54
2022-10-22T12:15:50.000Z,75.73
2022-10-22T12:16:50.000Z,75.43
2022-10-22T12:17:50.000Z,76.23
2022-10-22T12:18:50.000Z,76.07
2022-10-22T12:19:50.000Z,76.27
2022-10-22T12:20:49.000Z,76.07
2022-10-22T12:21:49.000Z,76.14
2022-10-22T12:22:49.000Z,75.26
2022-10-22T12:23:49.000Z,76.57
2022-10-22T12:24:49.000Z,76.47
2022-10-22T12:25:49.000Z,76.34
2022-10-22T12:26:49.000Z,75.13
2022-10-22T12:27:49.000Z,75.56
2022-10-22T12:28:49.000Z,75.93
2022-10-22T12:29:49.000Z,75.02
2022-10-22T12:30:49.000Z,75.73
2022-10-22T12:31:49.000Z,74.93
2022-10-22T12:32:49.000Z,75.33
2022-10-22T12:33:49.000Z,75.23
2022-10-22T12:34:49.000Z,75.02
2022-10-22T12:35:49.000Z,75.83
2022-10-22T12:36:49.000Z,76.14
2022-10-22T12:37:49.000Z,74.82
2022-10-22T12:38:49.000Z,75.02
2022-10-22T12:39:49.000Z,76.23
2022-10-22T12:40:49.000Z,74.22
2022-10-22T12:41:49.000Z,74.52
2022-10-22T12:42:49.000Z,74.82
2022-10-22T12:43:49.000Z,76.34
2022-10-22T12:44:49.000Z,76.34
2022-10-22T12:45:49.000Z,75.73
2022-10-22T12:46:49.000Z,76.64
2022-10-22T12:47:49.000Z,75.73
2022-10-22T12:48:49.000Z,76.14
2022-10-22T12:49:49.000Z,75.63
2022-10-22T12:50:49.000Z,75.93
2022-10-22T12:51:49.000Z,76.37
2022-10-22T12:52:49.000Z,76.37
2022-10-22T12:53:49.000Z,76.17